This is the latest recevied weather packets stored in our database for station/object N7ZAP. If no packets are shown the sender has not sent any weather packets the latest 10 day(s).
| Time | Temp. | Humidity | Pressure | Rain* | Wind** | Luminosity | Snow |
|---|---|---|---|---|---|---|---|
| 1777675641 | 9.44° C | 85% | 1019 hPa | 1.27 mm | - | - | - |
| 1777675339 | 9.44° C | 84% | 1019.4 hPa | 1.78 mm | - | - | - |
| 1777675035 | 9.44° C | 81% | 1019.2 hPa | 1.78 mm | - | - | - |
| 1777674732 | 9.44° C | 79% | 1019.1 hPa | 0 mm | - | - | - |
| 1777674429 | 9.44° C | 78% | 1019.1 hPa | 0 mm | - | - | - |
| 1777674126 | 10° C | 76% | 1019 hPa | 0 mm | - | - | - |
| 1777673822 | 11.67° C | 70% | 1019.1 hPa | 0 mm | - | - | - |
| 1777673519 | 12.78° C | 65% | 1018.5 hPa | 0 mm | - | - | - |
| 1777673217 | 13.89° C | 52% | 1018.2 hPa | 0 mm | - | - | - |
| 1777672914 | 16.11° C | 44% | 1018.2 hPa | 0 mm | - | - | - |
| 1777672611 | 16.11° C | 41% | 1017.5 hPa | 0 mm | - | - | - |
| 1777672306 | 16.67° C | 41% | 1017.4 hPa | 0 mm | - | - | - |
| 1777672001 | 16.67° C | 41% | 1017.3 hPa | 0 mm | - | - | - |
| 1777671697 | 16.67° C | 40% | 1017 hPa | 0 mm | - | - | - |
| 1777671394 | 17.22° C | 40% | 1017 hPa | 0 mm | - | - | - |
| 1777671090 | 17.22° C | 39% | 1017 hPa | 0 mm | - | - | - |
| 1777670787 | 17.78° C | 38% | 1017 hPa | 0 mm | - | - | - |
| 1777670483 | 17.78° C | 38% | 1016.9 hPa | 0 mm | - | - | - |
| 1777670180 | 18.33° C | 37% | 1016.7 hPa | 0 mm | - | - | - |
| 1777669878 | 17.78° C | 38% | 1016.6 hPa | 0 mm | - | - | - |
| 1777669574 | 18.33° C | 36% | 1016.6 hPa | 0 mm | - | - | - |
| 1777669271 | 18.89° C | 36% | 1016.3 hPa | 0 mm | - | - | - |
| 1777668968 | 18.89° C | 35% | 1016.7 hPa | 0 mm | - | - | - |
| 1777668665 | 20° C | 34% | 1016.8 hPa | 0 mm | - | - | - |
| 1777668361 | 20.56° C | 33% | 1017.2 hPa | 0 mm | - | - | - |
* Rain latest hour (hover to see other rain measurements)
** Current wind speed in m/s (hover to see current wind gust speed)